McAllen, TX

8:36 AM CDT on March 25, 2017 (GMT -0500)
McAllen Miller International | | Change Station

Elev 105 ft 26.18 °N, 98.24 °W | Updated 43 minutes ago

Overcast
Overcast
74 °F
Feels Like 74 °F
N
8
Wind Variable Wind from SSE

Today
High -- | Low -- °F
--% Chance of Precip.
Yesterday
High -- | Low -- °F
Precip. -- in
Pressure 30.00 in
Visibility 6.0 miles
Clouds Overcast 1000 ft
Dew Point 69 °F
Humidity 85%
Rainfall 0.00 in
Snow Depth Not available.
7:31 AM 7:46 PM
Waning Crescent, 8% visible
METAR KMFE 251253Z 15007KT 6SM HZ OVC010 23/21 A3000 RMK AO2 CIG 008V015 SLP158 T02330206 $
Pressure 30.00 in
Visibility 6.0 miles
Clouds Overcast 1000 ft
Dew Point 69 °F
Humidity 85%
Rainfall 0.00 in
Snow Depth Not available.
7:31 AM 7:46 PM
Waning Crescent, 8% visible
METAR KMFE 251253Z 15007KT 6SM HZ OVC010 23/21 A3000 RMK AO2 CIG 008V015 SLP158 T02330206 $

Get Severe Weather Alerts

Thanks for signing up!

Be on the lookout for a verification email in your inbox.

You'll start receiving the daily forecast at 8 AM.

×

10-Day Weather Forecast

Almanac

Astronomy

Mar. 25, 2017 Rise Set
Actual Time
Civil Twilight
Nautical Twilight
Astronomical Twilight
Moon
Length of Visible Light
Length of Day
Tomorrow will be .
, % of the Moon is Illuminated

Today's Extremes

State Highs State Lows

Community

WunderPhotos

Upload Photos

1,962,540 photos uploaded!

WunderBlog® & News

Nearby

Air Quality

  Air Quality AQ Index Pollutant
Not available.

Snow Depth

Station Depth Elevation

Earthquake Activity

City Distance Mag. Time & Date
Minimum magnitude displayed is 2.5.

Earthquake Activity

City Distance Mag. Time & Date
Minimum magnitude displayed is 2.5.

Coastal Water Temperatures

Place Temperature

Stations

Nearby Weather Stations

Station Location Temp. Windchill Dew Point Humidity Wind Precip. Elev Updated Type
                   

Watches & Warnings

There are currently no watches in effect.